sensor_id;sensor_type;location;lat;lon;timestamp;pressure;altitude;pressure_sealevel;temperature
77789;BMP280;66980;44.384;0.512;2023-02-14T00:01:31;103010.16;;;20.06
77789;BMP280;66980;44.384;0.512;2023-02-14T00:03:56;103007.66;;;20.02
77789;BMP280;66980;44.384;0.512;2023-02-14T00:06:25;103008.34;;;19.97
77789;BMP280;66980;44.384;0.512;2023-02-14T00:08:50;103006.63;;;19.94
77789;BMP280;66980;44.384;0.512;2023-02-14T00:11:19;103000.09;;;19.91
77789;BMP280;66980;44.384;0.512;2023-02-14T00:13:44;102997.28;;;19.86
77789;BMP280;66980;44.384;0.512;2023-02-14T00:16:28;103000.53;;;19.84
77789;BMP280;66980;44.384;0.512;2023-02-14T00:22:16;103005.28;;;19.78
77789;BMP280;66980;44.384;0.512;2023-02-14T00:24:41;103002.75;;;19.75
77789;BMP280;66980;44.384;0.512;2023-02-14T00:27:07;102998.22;;;19.72
77789;BMP280;66980;44.384;0.512;2023-02-14T00:29:33;102996.94;;;19.67
77789;BMP280;66980;44.384;0.512;2023-02-14T00:31:59;103000.16;;;19.65
77789;BMP280;66980;44.384;0.512;2023-02-14T00:34:25;102997.66;;;19.62
77789;BMP280;66980;44.384;0.512;2023-02-14T00:36:51;102996.16;;;19.61
77789;BMP280;66980;44.384;0.512;2023-02-14T00:39:19;102990.84;;;19.57
77789;BMP280;66980;44.384;0.512;2023-02-14T00:41:44;102987.84;;;19.55
77789;BMP280;66980;44.384;0.512;2023-02-14T00:44:11;102992.81;;;19.51
77789;BMP280;66980;44.384;0.512;2023-02-14T00:46:37;102985.53;;;19.48
77789;BMP280;66980;44.384;0.512;2023-02-14T00:49:03;102975.50;;;19.45
77789;BMP280;66980;44.384;0.512;2023-02-14T00:51:29;102978.75;;;19.43
77789;BMP280;66980;44.384;0.512;2023-02-14T00:53:54;102975.97;;;19.38
77789;BMP280;66980;44.384;0.512;2023-02-14T00:56:20;102979.47;;;19.38
77789;BMP280;66980;44.384;0.512;2023-02-14T00:58:46;102982.44;;;19.35
77789;BMP280;66980;44.384;0.512;2023-02-14T01:01:12;102977.91;;;19.32
77789;BMP280;66980;44.384;0.512;2023-02-14T01:03:38;102974.16;;;19.29
77789;BMP280;66980;44.384;0.512;2023-02-14T01:06:04;102971.88;;;19.28
77789;BMP280;66980;44.384;0.512;2023-02-14T01:08:30;102966.59;;;19.24
77789;BMP280;66980;44.384;0.512;2023-02-14T01:10:56;102965.56;;;19.21
77789;BMP280;66980;44.384;0.512;2023-02-14T01:13:22;102968.06;;;19.19
77789;BMP280;66980;44.384;0.512;2023-02-14T01:15:49;102967.03;;;19.17
77789;BMP280;66980;44.384;0.512;2023-02-14T01:18:17;102961.25;;;19.15
77789;BMP280;66980;44.384;0.512;2023-02-14T01:20:43;102954.72;;;19.12
77789;BMP280;66980;44.384;0.512;2023-02-14T01:23:08;102954.94;;;19.09
77789;BMP280;66980;44.384;0.512;2023-02-14T01:25:36;102953.94;;;19.06
77789;BMP280;66980;44.384;0.512;2023-02-14T01:28:01;102953.94;;;19.06
77789;BMP280;66980;44.384;0.512;2023-02-14T01:30:27;102960.16;;;19.01
77789;BMP280;66980;44.384;0.512;2023-02-14T01:32:52;102951.63;;;18.99
77789;BMP280;66980;44.384;0.512;2023-02-14T01:35:18;102955.34;;;18.96
77789;BMP280;66980;44.384;0.512;2023-02-14T01:37:43;102948.06;;;18.93
77789;BMP280;66980;44.384;0.512;2023-02-14T01:40:09;102956.06;;;18.91
77789;BMP280;66980;44.384;0.512;2023-02-14T01:42:35;102953.78;;;18.89
77789;BMP280;66980;44.384;0.512;2023-02-14T01:45:05;102954.78;;;18.86
77789;BMP280;66980;44.384;0.512;2023-02-14T01:47:34;102955.75;;;18.83
77789;BMP280;66980;44.384;0.512;2023-02-14T01:50:25;102949.19;;;18.81
77789;BMP280;66980;44.384;0.512;2023-02-14T01:53:02;102950.19;;;18.78
77789;BMP280;66980;44.384;0.512;2023-02-14T01:55:31;102950.66;;;18.76
77789;BMP280;66980;44.384;0.512;2023-02-14T01:58:02;102953.13;;;18.74
77789;BMP280;66980;44.384;0.512;2023-02-14T02:00:29;102955.63;;;18.72
77789;BMP280;66980;44.384;0.512;2023-02-14T02:03:15;102953.84;;;18.69
77789;BMP280;66980;44.384;0.512;2023-02-14T02:05:46;102952.81;;;18.66
77789;BMP280;66980;44.384;0.512;2023-02-14T02:08:12;102956.56;;;18.63
77789;BMP280;66980;44.384;0.512;2023-02-14T02:10:38;102950.31;;;18.63
77789;BMP280;66980;44.384;0.512;2023-02-14T02:13:15;102953.25;;;18.59
77789;BMP280;66980;44.384;0.512;2023-02-14T02:27:08;102939.84;;;18.46
77789;BMP280;66980;44.384;0.512;2023-02-14T02:37:55;102933.28;;;18.38
77789;BMP280;66980;44.384;0.512;2023-02-14T02:43:25;102939.72;;;18.35
77789;BMP280;66980;44.384;0.512;2023-02-14T02:49:05;102931.44;;;18.30
77789;BMP280;66980;44.384;0.512;2023-02-14T02:51:47;102929.63;;;18.27
77789;BMP280;66980;44.384;0.512;2023-02-14T02:54:39;102927.38;;;18.25
77789;BMP280;66980;44.384;0.512;2023-02-14T02:57:12;102919.59;;;18.23
77789;BMP280;66980;44.384;0.512;2023-02-14T02:59:41;102908.34;;;18.21
77789;BMP280;66980;44.384;0.512;2023-02-14T03:02:19;102915.56;;;18.19
77789;BMP280;66980;44.384;0.512;2023-02-14T03:04:51;102920.81;;;18.17
77789;BMP280;66980;44.384;0.512;2023-02-14T03:07:38;102918.53;;;18.15
77789;BMP280;66980;44.384;0.512;2023-02-14T03:10:20;102915.22;;;18.11
77789;BMP280;66980;44.384;0.512;2023-02-14T03:18:05;102909.63;;;18.06
77789;BMP280;66980;44.384;0.512;2023-02-14T03:28:13;102906.09;;;18.00
77789;BMP280;66980;44.384;0.512;2023-02-14T03:33:26;102898.03;;;17.96
77789;BMP280;66980;44.384;0.512;2023-02-14T03:36:20;102905.25;;;17.93
77789;BMP280;66980;44.384;0.512;2023-02-14T03:38:54;102905.75;;;17.92
77789;BMP280;66980;44.384;0.512;2023-02-14T03:41:24;102903.47;;;17.90
77789;BMP280;66980;44.384;0.512;2023-02-14T03:43:58;102908.66;;;17.88
77789;BMP280;66980;44.384;0.512;2023-02-14T03:46:27;102906.41;;;17.87
77789;BMP280;66980;44.384;0.512;2023-02-14T03:48:56;102905.66;;;17.86
77789;BMP280;66980;44.384;0.512;2023-02-14T03:51:25;102902.63;;;17.84
77789;BMP280;66980;44.384;0.512;2023-02-14T03:53:55;102897.66;;;17.83
77789;BMP280;66980;44.384;0.512;2023-02-14T03:58:53;102901.81;;;17.78
77789;BMP280;66980;44.384;0.512;2023-02-14T04:01:23;102907.81;;;17.77
77789;BMP280;66980;44.384;0.512;2023-02-14T04:03:54;102898.78;;;17.76
77789;BMP280;66980;44.384;0.512;2023-02-14T04:06:21;102889.50;;;17.73
77789;BMP280;66980;44.384;0.512;2023-02-14T04:08:47;102891.97;;;17.71
77789;BMP280;66980;44.384;0.512;2023-02-14T04:11:13;102886.94;;;17.70
77789;BMP280;66980;44.384;0.512;2023-02-14T04:13:38;102890.19;;;17.68
77789;BMP280;66980;44.384;0.512;2023-02-14T04:16:05;102894.19;;;17.67
77789;BMP280;66980;44.384;0.512;2023-02-14T04:18:30;102883.69;;;17.66
77789;BMP280;66980;44.384;0.512;2023-02-14T04:21:15;102897.13;;;17.64
77789;BMP280;66980;44.384;0.512;2023-02-14T04:23:40;102892.88;;;17.63
77789;BMP280;66980;44.384;0.512;2023-02-14T04:26:06;102898.81;;;17.61
77789;BMP280;66980;44.384;0.512;2023-02-14T04:28:32;102884.06;;;17.59
77789;BMP280;66980;44.384;0.512;2023-02-14T04:31:04;102883.78;;;17.57
77789;BMP280;66980;44.384;0.512;2023-02-14T04:33:31;102889.75;;;17.55
77789;BMP280;66980;44.384;0.512;2023-02-14T04:35:57;102892.97;;;17.54
77789;BMP280;66980;44.384;0.512;2023-02-14T04:38:22;102880.97;;;17.51
77789;BMP280;66980;44.384;0.512;2023-02-14T04:40:49;102883.72;;;17.51
77789;BMP280;66980;44.384;0.512;2023-02-14T04:43:17;102886.19;;;17.49
77789;BMP280;66980;44.384;0.512;2023-02-14T04:45:43;102888.66;;;17.47
77789;BMP280;66980;44.384;0.512;2023-02-14T04:48:08;102884.84;;;17.44
77789;BMP280;66980;44.384;0.512;2023-02-14T04:50:34;102883.06;;;17.41
77789;BMP280;66980;44.384;0.512;2023-02-14T04:53:00;102882.31;;;17.41
77789;BMP280;66980;44.384;0.512;2023-02-14T04:55:25;102872.28;;;17.38
77789;BMP280;66980;44.384;0.512;2023-02-14T04:57:51;102878.25;;;17.36
77789;BMP280;66980;44.384;0.512;2023-02-14T05:00:17;102876.75;;;17.35
77789;BMP280;66980;44.384;0.512;2023-02-14T05:02:43;102878.72;;;17.35
77789;BMP280;66980;44.384;0.512;2023-02-14T05:05:08;102870.97;;;17.33
77789;BMP280;66980;44.384;0.512;2023-02-14T05:07:34;102878.19;;;17.31
77789;BMP280;66980;44.384;0.512;2023-02-14T05:09:59;102875.13;;;17.29
77789;BMP280;66980;44.384;0.512;2023-02-14T05:12:25;102877.63;;;17.27
77789;BMP280;66980;44.384;0.512;2023-02-14T05:14:50;102877.31;;;17.24
77789;BMP280;66980;44.384;0.512;2023-02-14T05:17:16;102861.31;;;17.23
77789;BMP280;66980;44.384;0.512;2023-02-14T05:19:41;102872.78;;;17.21
77789;BMP280;66980;44.384;0.512;2023-02-14T05:22:07;102867.78;;;17.20
77789;BMP280;66980;44.384;0.512;2023-02-14T05:24:32;102868.25;;;17.18
77789;BMP280;66980;44.384;0.512;2023-02-14T05:26:58;102862.50;;;17.16
77789;BMP280;66980;44.384;0.512;2023-02-14T05:29:24;102860.19;;;17.15
77789;BMP280;66980;44.384;0.512;2023-02-14T05:31:49;102855.19;;;17.13
77789;BMP280;66980;44.384;0.512;2023-02-14T05:34:15;102855.69;;;17.12
77789;BMP280;66980;44.384;0.512;2023-02-14T05:36:40;102849.91;;;17.10
77789;BMP280;66980;44.384;0.512;2023-02-14T05:39:06;102858.59;;;17.08
77789;BMP280;66980;44.384;0.512;2023-02-14T05:41:31;102861.06;;;17.06
77789;BMP280;66980;44.384;0.512;2023-02-14T05:43:57;102857.59;;;17.06
77789;BMP280;66980;44.384;0.512;2023-02-14T05:46:22;102859.28;;;17.03
77789;BMP280;66980;44.384;0.512;2023-02-14T05:48:47;102868.75;;;17.02
77789;BMP280;66980;44.384;0.512;2023-02-14T05:51:13;102878.97;;;17.01
77789;BMP280;66980;44.384;0.512;2023-02-14T05:53:38;102872.44;;;16.99
77789;BMP280;66980;44.384;0.512;2023-02-14T05:56:04;102879.91;;;16.98
77789;BMP280;66980;44.384;0.512;2023-02-14T05:58:30;102883.16;;;16.97
77789;BMP280;66980;44.384;0.512;2023-02-14T06:00:56;102885.59;;;16.95
77789;BMP280;66980;44.384;0.512;2023-02-14T06:03:22;102879.81;;;16.93
77789;BMP280;66980;44.384;0.512;2023-02-14T06:05:48;102887.78;;;16.91
77789;BMP280;66980;44.384;0.512;2023-02-14T06:08:13;102878.50;;;16.88
77789;BMP280;66980;44.384;0.512;2023-02-14T06:10:39;102885.72;;;16.86
77789;BMP280;66980;44.384;0.512;2023-02-14T06:13:04;102880.22;;;16.86
77789;BMP280;66980;44.384;0.512;2023-02-14T06:15:34;102886.16;;;16.84
77789;BMP280;66980;44.384;0.512;2023-02-14T06:18:02;102879.66;;;16.82
77789;BMP280;66980;44.384;0.512;2023-02-14T06:20:28;102888.34;;;16.80
77789;BMP280;66980;44.384;0.512;2023-02-14T06:22:54;102890.78;;;16.78
77789;BMP280;66980;44.384;0.512;2023-02-14T06:25:21;102894.75;;;16.77
77789;BMP280;66980;44.384;0.512;2023-02-14T06:27:46;102898.25;;;16.77
77789;BMP280;66980;44.384;0.512;2023-02-14T06:30:12;102896.28;;;16.78
77789;BMP280;66980;44.384;0.512;2023-02-14T06:32:38;102896.16;;;16.87
77789;BMP280;66980;44.384;0.512;2023-02-14T06:35:07;102890.78;;;16.93
77789;BMP280;66980;44.384;0.512;2023-02-14T06:37:32;102900.81;;;16.96
77789;BMP280;66980;44.384;0.512;2023-02-14T06:39:58;102893.16;;;17.00
77789;BMP280;66980;44.384;0.512;2023-02-14T06:42:24;102891.47;;;17.02
77789;BMP280;66980;44.384;0.512;2023-02-14T06:44:53;102896.56;;;17.10
77789;BMP280;66980;44.384;0.512;2023-02-14T06:47:18;102899.41;;;17.15
77789;BMP280;66980;44.384;0.512;2023-02-14T06:49:43;102897.97;;;17.20
77789;BMP280;66980;44.384;0.512;2023-02-14T06:52:09;102886.78;;;17.23
77789;BMP280;66980;44.384;0.512;2023-02-14T06:54:35;102896.38;;;17.28
77789;BMP280;66980;44.384;0.512;2023-02-14T06:57:01;102889.16;;;17.31
77789;BMP280;66980;44.384;0.512;2023-02-14T06:59:26;102895.97;;;17.35
77789;BMP280;66980;44.384;0.512;2023-02-14T07:01:52;102900.00;;;17.40
77789;BMP280;66980;44.384;0.512;2023-02-14T07:04:17;102900.84;;;17.46
77789;BMP280;66980;44.384;0.512;2023-02-14T07:06:46;102905.47;;;17.55
77789;BMP280;66980;44.384;0.512;2023-02-14T07:09:11;102908.31;;;17.60
77789;BMP280;66980;44.384;0.512;2023-02-14T07:11:41;102910.38;;;17.65
77789;BMP280;66980;44.384;0.512;2023-02-14T07:14:07;102913.19;;;17.71
77789;BMP280;66980;44.384;0.512;2023-02-14T07:16:32;102918.78;;;17.77
77789;BMP280;66980;44.384;0.512;2023-02-14T07:18:57;102909.66;;;17.85
77789;BMP280;66980;44.384;0.512;2023-02-14T07:21:23;102908.00;;;17.93
77789;BMP280;66980;44.384;0.512;2023-02-14T07:23:49;102901.88;;;18.04
77789;BMP280;66980;44.384;0.512;2023-02-14T07:26:15;102920.50;;;18.15
77789;BMP280;66980;44.384;0.512;2023-02-14T07:28:45;102927.66;;;18.27
77789;BMP280;66980;44.384;0.512;2023-02-14T07:31:13;102927.03;;;18.38
77789;BMP280;66980;44.384;0.512;2023-02-14T07:33:39;102923.13;;;18.50
77789;BMP280;66980;44.384;0.512;2023-02-14T07:36:06;102921.25;;;18.62
77789;BMP280;66980;44.384;0.512;2023-02-14T07:38:32;102914.63;;;18.74
77789;BMP280;66980;44.384;0.512;2023-02-14T07:40:58;102913.25;;;18.90
77789;BMP280;66980;44.384;0.512;2023-02-14T07:43:24;102918.63;;;19.05
77789;BMP280;66980;44.384;0.512;2023-02-14T07:45:49;102918.47;;;19.19
77789;BMP280;66980;44.384;0.512;2023-02-14T07:48:14;102910.03;;;19.34
77789;BMP280;66980;44.384;0.512;2023-02-14T07:50:40;102913.91;;;19.48
77789;BMP280;66980;44.384;0.512;2023-02-14T07:53:05;102916.25;;;19.61
77789;BMP280;66980;44.384;0.512;2023-02-14T07:55:33;102906.25;;;19.69
77789;BMP280;66980;44.384;0.512;2023-02-14T07:57:58;102912.56;;;19.81
77789;BMP280;66980;44.384;0.512;2023-02-14T08:00:24;102909.34;;;19.88
77789;BMP280;66980;44.384;0.512;2023-02-14T08:02:49;102903.59;;;19.91
77789;BMP280;66980;44.384;0.512;2023-02-14T08:05:15;102910.13;;;19.94
77789;BMP280;66980;44.384;0.512;2023-02-14T08:07:40;102899.56;;;19.92
77789;BMP280;66980;44.384;0.512;2023-02-14T08:10:07;102893.09;;;19.96
77789;BMP280;66980;44.384;0.512;2023-02-14T08:12:33;102897.63;;;20.04
77789;BMP280;66980;44.384;0.512;2023-02-14T08:15:17;102899.38;;;20.07
77789;BMP280;66980;44.384;0.512;2023-02-14T08:18:01;102886.84;;;20.12
77789;BMP280;66980;44.384;0.512;2023-02-14T08:20:27;102884.34;;;20.14
77789;BMP280;66980;44.384;0.512;2023-02-14T08:22:52;102893.88;;;20.18
77789;BMP280;66980;44.384;0.512;2023-02-14T08:25:18;102890.16;;;20.22
77789;BMP280;66980;44.384;0.512;2023-02-14T08:27:43;102887.63;;;20.24
77789;BMP280;66980;44.384;0.512;2023-02-14T08:30:09;102893.16;;;20.24
77789;BMP280;66980;44.384;0.512;2023-02-14T08:32:35;102896.16;;;20.26
77789;BMP280;66980;44.384;0.512;2023-02-14T08:35:01;102886.59;;;20.27
77789;BMP280;66980;44.384;0.512;2023-02-14T08:37:26;102885.38;;;20.28
77789;BMP280;66980;44.384;0.512;2023-02-14T08:39:51;102895.16;;;20.29
77789;BMP280;66980;44.384;0.512;2023-02-14T08:42:17;102886.88;;;20.29
77789;BMP280;66980;44.384;0.512;2023-02-14T08:44:42;102888.88;;;20.28
77789;BMP280;66980;44.384;0.512;2023-02-14T08:47:08;102886.88;;;20.29
77789;BMP280;66980;44.384;0.512;2023-02-14T08:49:33;102890.91;;;20.28
77789;BMP280;66980;44.384;0.512;2023-02-14T08:51:59;102883.13;;;20.26
77789;BMP280;66980;44.384;0.512;2023-02-14T08:54:24;102884.38;;;20.25
77789;BMP280;66980;44.384;0.512;2023-02-14T08:56:50;102881.63;;;20.25
77789;BMP280;66980;44.384;0.512;2023-02-14T08:59:15;102886.38;;;20.25
77789;BMP280;66980;44.384;0.512;2023-02-14T09:01:41;102878.59;;;20.23
77789;BMP280;66980;44.384;0.512;2023-02-14T09:04:06;102881.63;;;20.25
77789;BMP280;66980;44.384;0.512;2023-02-14T09:06:32;102886.88;;;20.23
77789;BMP280;66980;44.384;0.512;2023-02-14T09:08:57;102887.38;;;20.22
77789;BMP280;66980;44.384;0.512;2023-02-14T09:11:24;102888.63;;;20.20
77789;BMP280;66980;44.384;0.512;2023-02-14T09:13:51;102882.13;;;20.18
77789;BMP280;66980;44.384;0.512;2023-02-14T09:16:18;102884.13;;;20.17
77789;BMP280;66980;44.384;0.512;2023-02-14T09:18:45;102881.84;;;20.16
77789;BMP280;66980;44.384;0.512;2023-02-14T09:21:14;102882.31;;;20.14
77789;BMP280;66980;44.384;0.512;2023-02-14T09:23:40;102880.59;;;20.11
77789;BMP280;66980;44.384;0.512;2023-02-14T09:26:08;102881.59;;;20.08
77789;BMP280;66980;44.384;0.512;2023-02-14T09:28:35;102882.81;;;20.07
77789;BMP280;66980;44.384;0.512;2023-02-14T09:31:27;102874.03;;;20.03
77789;BMP280;66980;44.384;0.512;2023-02-14T09:33:52;102863.75;;;19.98
77789;BMP280;66980;44.384;0.512;2023-02-14T09:36:18;102875.28;;;19.97
77789;BMP280;66980;44.384;0.512;2023-02-14T09:39:02;102868.50;;;19.92
77789;BMP280;66980;44.384;0.512;2023-02-14T09:46:38;102868.97;;;19.85
77789;BMP280;66980;44.384;0.512;2023-02-14T09:49:08;102864.47;;;19.82
77789;BMP280;66980;44.384;0.512;2023-02-14T09:51:38;102873.72;;;19.79
77789;BMP280;66980;44.384;0.512;2023-02-14T09:54:13;102862.47;;;19.77
77789;BMP280;66980;44.384;0.512;2023-02-14T09:56:53;102860.94;;;19.76
77789;BMP280;66980;44.384;0.512;2023-02-14T10:00:11;102852.41;;;19.74
77789;BMP280;66980;44.384;0.512;2023-02-14T10:05:28;102844.88;;;19.68
77789;BMP280;66980;44.384;0.512;2023-02-14T10:08:09;102841.63;;;19.64
77789;BMP280;66980;44.384;0.512;2023-02-14T10:10:41;102840.09;;;19.63
77789;BMP280;66980;44.384;0.512;2023-02-14T10:13:32;102841.09;;;19.60
77789;BMP280;66980;44.384;0.512;2023-02-14T10:16:10;102840.81;;;19.58
77789;BMP280;66980;44.384;0.512;2023-02-14T10:18:42;102830.78;;;19.55
77789;BMP280;66980;44.384;0.512;2023-02-14T10:21:23;102831.78;;;19.52
77789;BMP280;66980;44.384;0.512;2023-02-14T10:23:57;102838.28;;;19.49
77789;BMP280;66980;44.384;0.512;2023-02-14T10:26:38;102840.03;;;19.47
77789;BMP280;66980;44.384;0.512;2023-02-14T10:29:10;102824.22;;;19.41
77789;BMP280;66980;44.384;0.512;2023-02-14T10:31:51;102822.97;;;19.37
77789;BMP280;66980;44.384;0.512;2023-02-14T10:34:28;102825.94;;;19.33
77789;BMP280;66980;44.384;0.512;2023-02-14T10:45:31;102818.38;;;19.23
77789;BMP280;66980;44.384;0.512;2023-02-14T10:48:04;102816.09;;;19.21
77789;BMP280;66980;44.384;0.512;2023-02-14T10:51:14;102813.56;;;19.17
77789;BMP280;66980;44.384;0.512;2023-02-14T10:56:33;102799.03;;;19.11
77789;BMP280;66980;44.384;0.512;2023-02-14T10:59:13;102808.56;;;19.10
77789;BMP280;66980;44.384;0.512;2023-02-14T11:01:40;102802.03;;;19.08
77789;BMP280;66980;44.384;0.512;2023-02-14T11:04:06;102791.97;;;19.05
77789;BMP280;66980;44.384;0.512;2023-02-14T11:06:35;102783.97;;;19.01
77789;BMP280;66980;44.384;0.512;2023-02-14T11:09:01;102793.47;;;19.00
77789;BMP280;66980;44.384;0.512;2023-02-14T11:11:34;102784.94;;;18.98
77789;BMP280;66980;44.384;0.512;2023-02-14T11:14:32;102787.44;;;18.96
77789;BMP280;66980;44.384;0.512;2023-02-14T11:17:25;102778.16;;;18.93
77789;BMP280;66980;44.384;0.512;2023-02-14T11:20:01;102778.16;;;18.93
77789;BMP280;66980;44.384;0.512;2023-02-14T11:22:32;102774.13;;;18.89
77789;BMP280;66980;44.384;0.512;2023-02-14T11:25:44;102769.13;;;18.87
77789;BMP280;66980;44.384;0.512;2023-02-14T11:28:12;102761.84;;;18.84
77789;BMP280;66980;44.384;0.512;2023-02-14T11:30:42;102762.34;;;18.83
77789;BMP280;66980;44.384;0.512;2023-02-14T11:33:38;102762.34;;;18.83
77789;BMP280;66980;44.384;0.512;2023-02-14T11:36:10;102747.88;;;18.93
77789;BMP280;66980;44.384;0.512;2023-02-14T11:38:37;102750.09;;;18.89
77789;BMP280;66980;44.384;0.512;2023-02-14T11:41:05;102750.09;;;18.89
77789;BMP280;66980;44.384;0.512;2023-02-14T11:43:36;102742.09;;;18.86
77789;BMP280;66980;44.384;0.512;2023-02-14T11:49:01;102726.38;;;18.92
77789;BMP280;66980;44.384;0.512;2023-02-14T11:53:59;102721.38;;;18.90
77789;BMP280;66980;44.384;0.512;2023-02-14T11:57:06;102727.34;;;18.89
77789;BMP280;66980;44.384;0.512;2023-02-14T11:59:37;102720.84;;;18.86
77789;BMP280;66980;44.384;0.512;2023-02-14T12:02:23;102707.78;;;18.81
77789;BMP280;66980;44.384;0.512;2023-02-14T12:04:52;102701.06;;;18.82
77789;BMP280;66980;44.384;0.512;2023-02-14T12:07:25;102708.78;;;18.84
77789;BMP280;66980;44.384;0.512;2023-02-14T12:22:04;102685.53;;;18.85
77789;BMP280;66980;44.384;0.512;2023-02-14T12:26:48;102674.03;;;18.81
77789;BMP280;66980;44.384;0.512;2023-02-14T12:30:33;102671.50;;;18.77
77789;BMP280;66980;44.384;0.512;2023-02-14T12:32:28;102664.22;;;18.74
77789;BMP280;66980;44.384;0.512;2023-02-14T12:44:20;102648.44;;;18.69
77789;BMP280;66980;44.384;0.512;2023-02-14T12:47:13;102643.69;;;18.69
77789;BMP280;66980;44.384;0.512;2023-02-14T12:49:58;102628.22;;;18.72
77789;BMP280;66980;44.384;0.512;2023-02-14T13:01:22;102618.97;;;18.81
77789;BMP280;66980;44.384;0.512;2023-02-14T13:06:34;102602.47;;;18.81
77789;BMP280;66980;44.384;0.512;2023-02-14T13:09:20;102602.00;;;18.82
77789;BMP280;66980;44.384;0.512;2023-02-14T13:12:14;102593.00;;;18.82
77789;BMP280;66980;44.384;0.512;2023-02-14T13:17:49;102589.97;;;18.85
77789;BMP280;66980;44.384;0.512;2023-02-14T13:23:04;102588.75;;;18.86
77789;BMP280;66980;44.384;0.512;2023-02-14T13:25:33;102577.97;;;18.88
77789;BMP280;66980;44.384;0.512;2023-02-14T13:28:04;102573.72;;;18.87
77789;BMP280;66980;44.384;0.512;2023-02-14T13:30:32;102573.97;;;18.89
77789;BMP280;66980;44.384;0.512;2023-02-14T13:33:06;102581.00;;;18.90
77789;BMP280;66980;44.384;0.512;2023-02-14T13:35:33;102572.25;;;18.92
77789;BMP280;66980;44.384;0.512;2023-02-14T13:38:05;102576.75;;;18.95
77789;BMP280;66980;44.384;0.512;2023-02-14T13:40:31;102567.25;;;18.96
77789;BMP280;66980;44.384;0.512;2023-02-14T13:43:00;102563.75;;;18.95
77789;BMP280;66980;44.384;0.512;2023-02-14T13:50:32;102552.50;;;18.99
77789;BMP280;66980;44.384;0.512;2023-02-14T13:52:58;102546.25;;;18.99
77789;BMP280;66980;44.384;0.512;2023-02-14T13:55:32;102545.00;;;19.00
77789;BMP280;66980;44.384;0.512;2023-02-14T13:58:03;102539.25;;;19.03
77789;BMP280;66980;44.384;0.512;2023-02-14T14:00:41;102539.00;;;19.01
77789;BMP280;66980;44.384;0.512;2023-02-14T14:03:15;102534.25;;;19.02
77789;BMP280;66980;44.384;0.512;2023-02-14T14:06:11;102533.50;;;19.01
77789;BMP280;66980;44.384;0.512;2023-02-14T14:08:42;102527.50;;;18.97
77789;BMP280;66980;44.384;0.512;2023-02-14T14:14:02;102526.94;;;18.93
77789;BMP280;66980;44.384;0.512;2023-02-14T14:16:31;102527.19;;;18.89
77789;BMP280;66980;44.384;0.512;2023-02-14T14:21:31;102520.19;;;18.83
77789;BMP280;66980;44.384;0.512;2023-02-14T14:26:46;102520.69;;;18.81
77789;BMP280;66980;44.384;0.512;2023-02-14T14:34:57;102514.69;;;18.83
77789;BMP280;66980;44.384;0.512;2023-02-14T14:37:28;102498.19;;;18.83
77789;BMP280;66980;44.384;0.512;2023-02-14T14:39:59;102504.94;;;18.82
77789;BMP280;66980;44.384;0.512;2023-02-14T14:42:29;102502.66;;;18.86
77789;BMP280;66980;44.384;0.512;2023-02-14T14:44:59;102499.94;;;18.91
77789;BMP280;66980;44.384;0.512;2023-02-14T14:47:46;102495.97;;;18.92
77789;BMP280;66980;44.384;0.512;2023-02-14T14:52:50;102481.22;;;19.01
77789;BMP280;66980;44.384;0.512;2023-02-14T14:55:23;102469.16;;;19.04
77789;BMP280;66980;44.384;0.512;2023-02-14T14:57:54;102478.41;;;19.07
77789;BMP280;66980;44.384;0.512;2023-02-14T15:00:49;102472.91;;;19.07
77789;BMP280;66980;44.384;0.512;2023-02-14T15:05:41;102465.44;;;19.02
77789;BMP280;66980;44.384;0.512;2023-02-14T15:10:52;102463.41;;;18.91
77789;BMP280;66980;44.384;0.512;2023-02-14T15:13:26;102465.94;;;18.94
77789;BMP280;66980;44.384;0.512;2023-02-14T15:16:19;102464.16;;;18.91
77789;BMP280;66980;44.384;0.512;2023-02-14T15:18:46;102459.91;;;18.85
77789;BMP280;66980;44.384;0.512;2023-02-14T15:21:13;102456.91;;;18.83
77789;BMP280;66980;44.384;0.512;2023-02-14T15:23:40;102447.88;;;18.77
77789;BMP280;66980;44.384;0.512;2023-02-14T15:26:16;102446.38;;;18.76
77789;BMP280;66980;44.384;0.512;2023-02-14T15:28:42;102446.88;;;18.74
77789;BMP280;66980;44.384;0.512;2023-02-14T15:31:08;102443.63;;;18.76
77789;BMP280;66980;44.384;0.512;2023-02-14T15:33:34;102456.13;;;18.77
77789;BMP280;66980;44.384;0.512;2023-02-14T15:36:05;102448.91;;;18.74
77789;BMP280;66980;44.384;0.512;2023-02-14T15:38:35;102446.63;;;18.72
77789;BMP280;66980;44.384;0.512;2023-02-14T15:41:03;102455.88;;;18.75
77789;BMP280;66980;44.384;0.512;2023-02-14T15:43:34;102454.16;;;18.83
77789;BMP280;66980;44.384;0.512;2023-02-14T15:48:54;102449.91;;;18.82
77789;BMP280;66980;44.384;0.512;2023-02-14T15:51:31;102457.16;;;18.85
77789;BMP280;66980;44.384;0.512;2023-02-14T15:54:02;102459.41;;;18.86
77789;BMP280;66980;44.384;0.512;2023-02-14T15:56:30;102453.13;;;18.86
77789;BMP280;66980;44.384;0.512;2023-02-14T15:59:06;102453.13;;;18.86
77789;BMP280;66980;44.384;0.512;2023-02-14T16:01:33;102449.16;;;18.87
77789;BMP280;66980;44.384;0.512;2023-02-14T16:04:00;102449.16;;;18.87
77789;BMP280;66980;44.384;0.512;2023-02-14T16:08:55;102439.16;;;18.78
77789;BMP280;66980;44.384;0.512;2023-02-14T16:11:33;102447.09;;;18.70
77789;BMP280;66980;44.384;0.512;2023-02-14T16:19:35;102433.59;;;18.67
77789;BMP280;66980;44.384;0.512;2023-02-14T16:22:01;102425.84;;;18.65
77789;BMP280;66980;44.384;0.512;2023-02-14T16:24:27;102432.63;;;18.64
77789;BMP280;66980;44.384;0.512;2023-02-14T16:26:54;102428.38;;;18.63
77789;BMP280;66980;44.384;0.512;2023-02-14T16:29:19;102430.84;;;18.61
77789;BMP280;66980;44.384;0.512;2023-02-14T16:31:54;102428.63;;;18.60
77789;BMP280;66980;44.384;0.512;2023-02-14T16:34:20;102429.88;;;18.59
77789;BMP280;66980;44.384;0.512;2023-02-14T16:36:46;102429.59;;;18.57
77789;BMP280;66980;44.384;0.512;2023-02-14T16:39:22;102430.81;;;18.56
77789;BMP280;66980;44.384;0.512;2023-02-14T16:41:51;102438.84;;;18.54
77789;BMP280;66980;44.384;0.512;2023-02-14T16:44:18;102438.09;;;18.53